East Orange, NJ (07018)

9:34 PM EDT on April 18, 2015 (GMT -0400)
University Heights | | Change Station
CLOSE
Current Station
Personal Weather Station
Location: Newark, NJ
Elevation: 177 ft
Nearby Weather Stations

Elev 177 ft 40.74 °N, 74.19 °W | Updated 1 second ago

Partly Cloudy
Partly Cloudy
70.1 °F
Feels Like 76 °F
N
31.9
Wind Variable Wind from NW
Gusts 36.0 mph

Today
High -- | Low -- °F
--% Chance of Precip.
Yesterday
High -- | Low -- °F
Precip. -- in
6:13 AM 7:39 PM
New Moon, 0% visible
Pressure 29.94 in
Visibility 10.0 miles
Clouds Few 7000 ft
Scattered Clouds 25000 ft
Heat Index 76 °F
Dew Point 37 °F
Humidity 29%
Rainfall 0.00 in
Snow Depth Not available.
UV 0 out of 12
Pollen 11.50 out of 12
Air Quality Not available.
Flu Activity Regional
METAR KEWR 190051Z 34021G28KT 10SM FEW070 SCT250 24/02 A2994 RMK AO2 PK WND 36028/0042 WSHFT 0013 SLP136 T02390017

More Conditions Fewer Conditions

Pressure 29.94 in
Visibility 10.0 miles
Clouds Few 7000 ft
Scattered Clouds 25000 ft
Heat Index 76 °F
Dew Point 37 °F
Humidity 29%
Rainfall 0.00 in
Snow Depth Not available.
UV 0 out of 12
Pollen 11.50 out of 12
Air Quality Not available.
Flu Activity Regional
METAR KEWR 190051Z 34021G28KT 10SM FEW070 SCT250 24/02 A2994 RMK AO2 PK WND 36028/0042 WSHFT 0013 SLP136 T02390017

More Conditions Fewer Conditions

10-Day Weather Forecast

Almanac

Astronomy

Apr. 18, 2015 Rise Set
Actual Time
Civil Twilight
Nautical Twilight
Astronomical Twilight
Moon
Length of Visible Light
Length of Day
Tomorrow will be .
, % of the Moon is Illuminated

Today's Extremes

State Highs State Lows

Community

WunderPhotos

Upload Photos

1,814,626 photos uploaded!

WunderBlogs® & News

Nearby

Air Quality

  Air Quality AQ Index Pollutant
Not available.

Snow Depth

Station Depth Elevation

Earthquake Activity

City Distance Mag. Time & Date
Minimum magnitude displayed is 2.5.

Coastal Water Temperatures

Place Temperature

Stations

Nearby Weather Stations

Station Location Temp. Windchill Dew Point Humidity Wind Precip. Elev Updated Type